Station info - map view · info · telemetry · weather · raw · status · beacons · messages · bulletins · browse · moving · my account
Callsign, ship name or locator: Clear       
It is possible to search using wildcards (*?) after a prefix. Example: OH*
APRS station K2FOP-8 - show graphs
Map loading...
Mic-E message: Off duty
Location: 40°36.42' N 74°09.93' W - locator FN20WO05DQ - show map - static map
0.8 miles Southeast bearing 120° from Bloomfield, Richmond County, New York, United States [?]
3.4 miles Northwest bearing 336° from Staten Island, Richmond County, New York, United States
11.2 miles Southwest bearing 228° from New York City, New York, United States
11.7 miles West bearing 255° from Brooklyn, Kings County, New York, United States
Last position: 2019-03-20 14:52:10 EDT (3d 5h57m ago)
2019-03-20 14:52:10 EDT local time at Bloomfield, United States [?]
Altitude: 39 ft
Course:
Speed: 16 MPH
Device: Yaesu: FTM-400DR (rig)
Last path: K2FOP-8>TPSV4R via KB2EAR-1,WIDE1,qAR,KA2DDO (good)
Positions stored: 6456
Packet rate: 436 seconds between packets on average during 3490 seconds.
Stations near current position of K2FOP-8 - show more
callsign distance last heard - EDT      callsign distance last heard - EDT
NY2M-6305.2 yards 217°2019-03-16 22:44:27 WA2JWR476.8 yards 140°2019-03-20 13:58:08
NY2M0.3 miles 343°2019-03-19 14:28:50 NY2M-90.6 miles 21°2019-03-18 13:42:52
KD2QIW-91.0 miles 173°2019-03-23 15:56:17 EW78931.2 miles 60°2019-03-23 20:46:04
KD2NFC-81.5 miles 163°2019-03-23 20:40:37 KD2NFC1.5 miles 163°2019-03-23 20:42:43
KD2NFC-N1.5 miles 163°2019-03-23 20:38:50 EL-KD2NFC1.5 miles 163°2019-03-23 20:40:32
Wa2jwr-r1.6 miles 223°2019-03-23 20:49:06 FW21341.6 miles 228°2019-03-23 20:46:20
WB2YZX1.9 miles 66°2019-03-23 10:33:37 WB2YZX-71.9 miles 66°2019-03-06 18:04:01
WB2YZX-41.9 miles 66°2019-03-06 18:04:00 N4ALT C2.1 miles 157°2019-02-24 12:30:21
N4ALT-C2.1 miles 157°2019-02-24 12:30:31 N2EHN2.3 miles 91°2019-03-23 10:33:17
N2EHN-72.3 miles 91°2019-03-22 09:39:21 EATME2.3 miles 91°2019-03-22 08:39:07
Stations which heard K2FOP-8 directly on radio –
callsign pkts first heard - EDT last heard longest (tx => rx) longest at - EDT
W3UD-3 1 2019-03-01 10:43:06 2019-03-01 10:43:06 FM29FQ > FM29CQ 9.4 miles 267° 2019-03-01 10:43:06
WB2SNN-15 2 2019-03-01 09:17:18 2019-03-01 09:20:38 FN20UM > FN20TK 8.1 miles 217° 2019-03-01 09:17:18
N3KTX-1 8 2019-03-01 11:30:18 2019-03-01 12:15:29 FM19VL > FM19PG 30.9 miles 242° 2019-03-01 11:30:18
N2MH-15 26 2019-03-01 08:57:18 2019-03-19 13:02:53 FN30BO > FN20UT 22.8 miles 309° 2019-03-13 12:38:06
N3XJT-1 11 2019-03-01 10:53:02 2019-03-01 11:18:18 FM19VL > FM29AN 14.6 miles 70° 2019-03-01 11:18:18
N3HF-1 4 2019-03-01 13:17:57 2019-03-01 19:34:47 FM18IS > FM18GQ 9.3 miles 232° 2019-03-01 13:17:57
KG4URP-1 1 2019-03-01 19:59:55 2019-03-01 19:59:55 FM18IS > FM18IQ 5.3 miles 185° 2019-03-01 19:59:55
K3TU 3 2019-03-01 10:04:30 2019-03-01 10:25:34 FM29NX > FM29KX 13.7 miles 271° 2019-03-01 10:25:34
W2AEE 5 2019-03-13 12:57:04 2019-03-13 16:53:05 FN30DQ > FN30AT 16.9 miles 301° 2019-03-13 13:04:51
NV4FM-5 9 2019-03-01 12:31:13 2019-03-01 12:58:10 FM19KA > FM18JV 9.4 miles 216° 2019-03-01 12:31:13
KA2RLM-15 5 2019-03-01 09:29:23 2019-03-13 13:41:50 FN30HT > FN20RJ 70.6 miles 247° 2019-03-13 13:41:50
K2GE-13 5 2019-03-01 09:14:22 2019-03-06 19:41:19 FN20VM > FN20UK 6.2 miles 217° 2019-03-06 19:41:19
K3GJ-13 1 2019-03-01 12:17:35 2019-03-01 12:17:35 FM19NB > FM18NU 16.4 miles 172° 2019-03-01 12:17:35
N3FCX 4 2019-03-01 10:16:18 2019-03-01 10:34:07 FM29LU > FM29IV 12.3 miles 285° 2019-03-01 10:26:27
KC2QVT-15 3 2019-03-01 09:44:10 2019-03-01 10:08:29 FN20RF > FM29QX 17.7 miles 194° 2019-03-01 09:44:10
WB2ZII-15 3 2019-03-18 20:01:43 2019-03-19 14:22:34 FN20WO > FN31CG 49.8 miles 22° 2019-03-19 14:22:34
KV3B-1 5 2019-03-01 12:26:32 2019-03-01 19:34:47 FM18IS > FM19JE 29.1 miles 4° 2019-03-01 19:34:47
AC2FO 1 2019-03-01 10:14:20 2019-03-01 10:14:20 FM29LU > FM29MT 6.6 miles 128° 2019-03-01 10:14:20
N1KGM-1 1 2019-03-13 15:34:58 2019-03-13 15:34:58 FN30MV > FN31JG 28.9 miles 336° 2019-03-13 15:34:58
W4VA-10 2 2019-03-01 19:29:16 2019-03-01 19:34:47 FM18IS > FM18BR 30.4 miles 265° 2019-03-01 19:29:16
NR3I 5 2019-03-01 10:40:09 2019-03-01 10:50:58 FM29DP > FM29ER 8.2 miles 44° 2019-03-01 10:50:58
K2DLS-15 3 2019-03-01 09:18:31 2019-03-13 17:25:42 FN20XO > FN20VJ 16.3 miles 209° 2019-03-13 17:25:42
KB2EAR-1 12 2019-03-01 09:22:30 2019-03-19 13:55:02 FN20WO > FN20RO 21.4 miles 271° 2019-03-13 17:52:04
BRISTL 2 2019-03-01 09:48:12 2019-03-01 09:50:18 FN20QE > FN20NC 13.0 miles 246° 2019-03-01 09:48:12
MATWAN 77 2019-03-01 08:52:34 2019-03-20 14:49:47 FN20XR > FN20VJ 25.1 miles 209° 2019-03-18 20:12:00
N2UFM-2 1 2019-03-15 14:35:42 2019-03-15 14:35:42 FN20WO > FN20VN 5.7 miles 191° 2019-03-15 14:35:42
K3ARS-3 2 2019-03-01 11:05:16 2019-03-01 11:30:58 FM19XO > FM19VF 28.6 miles 198° 2019-03-01 11:05:16
AC2SV-10 1 2019-03-13 17:28:46 2019-03-13 17:28:46 FN20XO > FN20UR 15.0 miles 302° 2019-03-13 17:28:46
K3PDR-3 7 2019-03-01 09:46:10 2019-03-01 10:14:14 FN20QE > FN20JB 32.0 miles 256° 2019-03-01 09:46:10
K3FOX-1 8 2019-03-01 11:47:53 2019-03-01 12:05:21 FM19RI > FM19QF 11.6 miles 221° 2019-03-01 11:47:53
MDAAOC-1 3 2019-03-01 11:54:08 2019-03-01 12:03:23 FM19RG > FM19QD 7.6 miles 204° 2019-03-01 11:54:08
W4KEL-12 2 2019-03-01 12:52:27 2019-03-01 13:17:56 FM18IT > FM08QH 81.0 miles 244° 2019-03-01 12:52:27
W3VPR-1 1 2019-03-01 12:18:15 2019-03-01 12:18:15 FM19NB > FM18QV 17.9 miles 128° 2019-03-01 12:18:15
K4BBB-1 2 2019-03-01 12:42:29 2019-03-01 12:47:55 FM18JT > FM18JV 5.4 miles 9° 2019-03-01 12:47:55
KC2FD 7 2019-03-13 13:59:09 2019-03-13 15:43:11 FN30KU > FN30LV 6.7 miles 66° 2019-03-13 13:59:09
AL0Y-10 62 2019-03-01 08:57:16 2019-03-20 14:35:43 FN30DQ > FN20VV 30.1 miles 298° 2019-03-13 13:08:48

Only position packets which were originated by the station are shown here. The range statistics show some extra long hops, because some digipeaters do not correctly add themselves to the digipeater path. Please check the raw packets.
About this site
This page shows real-time information collected from the Automatic Position Reporting System Internet network (APRS-IS). APRS is used by amateur (ham) radio operators to transmit real-time position information, weather data, telemetry and messages over the radio. A vehicle equipped with a GPS receiver, a VHF transmitter or HF transceiver and a small computer device called a tracker transmits it's location, speed and course in a small data packet, which is then received by a nearby iGate receiving site which forwards the packet on the Internet. Systems connected to the Internet can send information on the APRS-IS without a radio transmitter, or collect and display information transmitted anywhere in the world.
FAQ · Blog · Discussion group · Linking to aprs.fi · AIS sites · Service status · Database statistics · Advertising on aprs.fi · Technical details · API · Change log · Planned changes · Credits and thanks · Terms Of Service · iPhone/iPad APRS